createdAt,value
2023-05-04T00:04:08.198Z,51.88
2023-05-04T00:09:16.432Z,51.55
2023-05-04T00:14:18.612Z,52.97
2023-05-04T00:19:20.768Z,55.70
2023-05-04T00:24:22.764Z,54.45
2023-05-04T00:29:24.980Z,51.28
2023-05-04T00:34:27.208Z,51.95
2023-05-04T00:39:29.800Z,55.67
2023-05-04T00:44:32.072Z,54.78
2023-05-04T00:49:35.487Z,51.70
2023-05-04T00:54:37.603Z,51.47
2023-05-04T00:59:39.700Z,53.94
2023-05-04T01:04:41.789Z,54.75
2023-05-04T01:09:49.962Z,55.71
2023-05-04T01:14:54.144Z,52.61
2023-05-04T01:19:57.245Z,52.27
2023-05-04T01:25:00.693Z,53.14
2023-05-04T01:30:09.277Z,54.20
2023-05-04T01:35:12.666Z,52.37
2023-05-04T01:40:14.679Z,52.58
2023-05-04T01:45:16.813Z,52.92
2023-05-04T01:50:19.925Z,55.51
2023-05-04T01:55:21.927Z,55.05
2023-05-04T02:00:24.143Z,55.49
2023-05-04T02:05:26.656Z,53.19
2023-05-04T02:10:29.040Z,53.24
2023-05-04T02:15:31.148Z,55.07
2023-05-04T02:20:33.430Z,55.07
2023-05-04T02:25:35.494Z,52.86
2023-05-04T02:30:37.677Z,53.02
2023-05-04T02:35:39.744Z,53.84
2023-05-04T02:40:41.857Z,55.71
2023-05-04T02:45:44.105Z,52.84
2023-05-04T02:50:46.703Z,52.51
2023-05-04T02:55:48.897Z,52.91
2023-05-04T03:00:56.168Z,54.95
2023-05-04T03:05:58.358Z,53.14
2023-05-04T03:11:00.281Z,54.60
2023-05-04T03:16:02.494Z,52.88
2023-05-04T03:21:05.097Z,52.86
2023-05-04T03:26:08.396Z,54.46
2023-05-04T03:31:11.413Z,53.44
2023-05-04T03:36:13.916Z,51.96
2023-05-04T03:41:17.148Z,52.34
2023-05-04T03:46:19.491Z,52.91
2023-05-04T03:51:21.932Z,52.99
2023-05-04T03:56:24.109Z,52.29
2023-05-04T04:01:26.720Z,52.45
2023-05-04T04:06:28.883Z,53.28
2023-05-04T04:11:31.156Z,53.25
2023-05-04T04:16:33.366Z,52.53
2023-05-04T04:21:35.626Z,52.57
2023-05-04T04:26:38.178Z,53.18
2023-05-04T04:31:40.559Z,54.33
2023-05-04T04:36:42.667Z,52.60
2023-05-04T04:41:44.748Z,52.50
2023-05-04T04:46:47.627Z,52.75
2023-05-04T04:51:49.908Z,53.58
2023-05-04T04:56:51.992Z,52.77
2023-05-04T05:01:54.038Z,52.18
2023-05-04T05:06:56.892Z,52.12
2023-05-04T05:11:59.119Z,53.33
2023-05-04T05:17:04.136Z,52.51
2023-05-04T05:22:06.326Z,54.18
2023-05-04T05:27:08.580Z,52.47
2023-05-04T05:32:10.734Z,53.50
2023-05-04T05:37:13.012Z,52.26
2023-05-04T05:42:15.160Z,52.88
2023-05-04T05:47:17.540Z,52.23
2023-05-04T05:52:19.669Z,51.97
2023-05-04T05:57:21.807Z,52.61
2023-05-04T06:02:24.288Z,53.42
2023-05-04T06:07:26.528Z,52.10
2023-05-04T06:12:28.674Z,52.49
2023-05-04T06:17:30.811Z,52.82
2023-05-04T06:22:33.020Z,54.10
2023-05-04T06:27:35.275Z,52.80
2023-05-04T06:32:37.815Z,52.98
2023-05-04T06:37:39.962Z,53.45
2023-05-04T06:42:42.116Z,54.74
2023-05-04T06:47:44.256Z,53.45
2023-05-04T06:52:46.715Z,53.21
2023-05-04T06:57:48.831Z,53.54
2023-05-04T07:02:53.614Z,55.02
2023-05-04T07:07:56.004Z,54.53
2023-05-04T07:12:59.368Z,53.82
2023-05-04T07:18:01.530Z,53.89
2023-05-04T07:23:04.134Z,55.03
2023-05-04T07:28:06.257Z,55.29
2023-05-04T07:33:08.346Z,55.25
2023-05-04T07:38:10.450Z,55.38
2023-05-04T07:43:12.534Z,54.16
2023-05-04T07:48:15.297Z,54.48
2023-05-04T07:53:18.340Z,54.76
2023-05-04T07:58:20.677Z,54.82
2023-05-04T08:03:22.876Z,54.14
2023-05-04T08:08:25.553Z,54.60
2023-05-04T08:13:27.635Z,55.23
2023-05-04T08:18:29.710Z,55.07
2023-05-04T08:23:32.766Z,54.24
2023-05-04T08:28:40.224Z,54.56
2023-05-04T08:33:42.343Z,55.33
2023-05-04T08:38:44.448Z,55.24
2023-05-04T08:43:49.557Z,55.53
2023-05-04T08:48:52.310Z,54.86
2023-05-04T08:53:55.948Z,54.40
2023-05-04T08:59:02.174Z,54.43
2023-05-04T09:04:04.773Z,55.57
2023-05-04T09:09:08.596Z,54.85
2023-05-04T09:14:10.773Z,54.85
2023-05-04T09:19:19.966Z,55.33
2023-05-04T09:24:29.708Z,55.71
2023-05-04T09:29:32.938Z,55.08
2023-05-04T09:34:37.524Z,55.19
2023-05-04T09:39:51.323Z,55.63
2023-05-04T09:45:05.140Z,55.69
2023-05-04T09:50:20.984Z,54.79
2023-05-04T09:55:24.190Z,54.72
2023-05-04T10:00:26.302Z,55.81
2023-05-04T10:05:28.747Z,55.83
2023-05-04T10:10:34.001Z,54.55
2023-05-04T10:15:37.946Z,54.85
2023-05-04T10:21:04.056Z,55.98
2023-05-04T10:26:47.897Z,55.62
2023-05-04T10:31:50.422Z,54.96
2023-05-04T10:36:52.841Z,55.13
2023-05-04T10:42:01.765Z,55.81
2023-05-04T10:47:08.291Z,55.69
2023-05-04T10:52:18.200Z,55.17
2023-05-04T10:57:20.799Z,55.31
2023-05-04T11:02:24.496Z,55.98
2023-05-04T11:07:37.929Z,55.27
2023-05-04T11:12:40.307Z,54.91
2023-05-04T11:17:53.002Z,54.77
2023-05-04T11:22:55.251Z,56.39
2023-05-04T11:28:01.665Z,55.80
2023-05-04T11:33:12.504Z,55.18
2023-05-04T11:38:20.283Z,55.38
2023-05-04T11:43:22.800Z,56.09
2023-05-04T11:48:25.128Z,55.66
2023-05-04T11:53:27.200Z,55.11
2023-05-04T11:58:29.818Z,55.26
2023-05-04T12:03:50.858Z,56.48
2023-05-04T12:09:02.083Z,55.64
2023-05-04T12:14:14.066Z,55.29
2023-05-04T12:19:16.193Z,55.97
2023-05-04T12:24:18.329Z,56.63
2023-05-04T12:29:20.462Z,55.63
2023-05-04T12:34:22.633Z,55.41
2023-05-04T12:39:24.974Z,56.68
2023-05-04T12:44:28.115Z,56.41
2023-05-04T12:49:30.242Z,55.73
2023-05-04T12:54:32.555Z,55.88
2023-05-04T12:59:34.737Z,56.59
2023-05-04T13:04:37.012Z,56.69
2023-05-04T13:09:39.028Z,55.66
2023-05-04T13:14:41.139Z,55.64
2023-05-04T13:19:43.503Z,56.66
2023-05-04T13:24:45.594Z,56.55
2023-05-04T13:29:47.870Z,55.64
2023-05-04T13:34:50.049Z,55.76
2023-05-04T13:39:52.336Z,56.70
2023-05-04T13:44:54.573Z,56.16
2023-05-04T13:49:56.669Z,55.93
2023-05-04T13:54:59.220Z,55.81
2023-05-04T14:00:07.598Z,56.38
2023-05-04T14:05:14.106Z,55.91
2023-05-04T14:10:16.476Z,55.94
2023-05-04T14:15:22.882Z,56.21
2023-05-04T14:20:25.041Z,56.35
2023-05-04T14:25:27.185Z,56.42
2023-05-04T14:30:29.379Z,56.75
2023-05-04T14:35:31.510Z,57.37
2023-05-04T14:40:33.753Z,57.91
2023-05-04T14:45:36.020Z,58.20
2023-05-04T14:50:38.148Z,58.12
2023-05-04T14:55:42.243Z,58.40
2023-05-04T15:00:45.327Z,58.42
2023-05-04T15:05:47.667Z,58.39
2023-05-04T15:10:49.611Z,58.67
2023-05-04T15:15:52.345Z,58.70
2023-05-04T15:20:54.533Z,58.69
2023-05-04T15:25:56.688Z,58.63
2023-05-04T15:30:58.733Z,58.74
2023-05-04T15:36:06.239Z,58.75
2023-05-04T15:41:08.707Z,58.55
2023-05-04T15:46:10.870Z,58.52
2023-05-04T15:51:12.944Z,58.69
2023-05-04T15:56:15.686Z,58.48
2023-05-04T16:01:17.807Z,58.45
2023-05-04T16:06:20.658Z,58.57
2023-05-04T16:11:23.626Z,58.35
2023-05-04T16:16:26.689Z,58.39
2023-05-04T16:21:29.401Z,58.37
2023-05-04T16:26:31.459Z,58.33
2023-05-04T16:31:33.760Z,58.45
2023-05-04T16:36:36.247Z,58.36
2023-05-04T16:41:38.339Z,58.34
2023-05-04T16:46:40.564Z,58.39
2023-05-04T16:51:43.070Z,58.03
2023-05-04T16:56:45.253Z,58.05
2023-05-04T17:01:48.078Z,57.84
2023-05-04T17:06:50.762Z,57.87
2023-05-04T17:11:52.904Z,57.89
2023-05-04T17:16:55.004Z,57.64
2023-05-04T17:21:57.032Z,57.51
2023-05-04T17:26:59.083Z,57.49
2023-05-04T17:32:01.224Z,57.50
2023-05-04T17:37:03.841Z,57.50
2023-05-04T17:42:07.364Z,57.28
2023-05-04T17:47:09.432Z,57.36
2023-05-04T17:52:13.687Z,57.19
2023-05-04T17:57:16.768Z,57.13
2023-05-04T18:02:18.858Z,57.21
2023-05-04T18:07:20.939Z,57.00
2023-05-04T18:12:23.542Z,57.10
2023-05-04T18:17:27.476Z,56.85
2023-05-04T18:22:29.627Z,56.85
2023-05-04T18:27:33.596Z,56.92
2023-05-04T18:32:36.326Z,57.01
2023-05-04T18:37:38.628Z,56.78
2023-05-04T18:42:40.697Z,56.75
2023-05-04T18:47:43.102Z,56.71
2023-05-04T18:52:45.130Z,56.79
2023-05-04T18:57:47.186Z,56.64
2023-05-04T19:02:49.402Z,56.73
2023-05-04T19:07:51.517Z,56.71
2023-05-04T19:12:53.590Z,56.64
2023-05-04T19:17:55.823Z,56.71
2023-05-04T19:22:58.255Z,56.77
2023-05-04T19:28:00.692Z,56.74
2023-05-04T19:33:03.396Z,56.63
2023-05-04T19:38:06.763Z,56.51
2023-05-04T19:43:09.034Z,56.52
2023-05-04T19:48:13.383Z,56.61
2023-05-04T19:53:16.852Z,56.47
2023-05-04T19:58:18.850Z,56.46
2023-05-04T20:03:21.046Z,56.65
2023-05-04T20:08:23.153Z,56.58
2023-05-04T20:13:25.778Z,56.62
2023-05-04T20:18:28.295Z,56.68
2023-05-04T20:23:30.356Z,56.54
2023-05-04T20:28:32.770Z,56.69
2023-05-04T20:33:37.040Z,56.44
2023-05-04T20:38:39.643Z,56.54
2023-05-04T20:43:41.870Z,56.40
2023-05-04T20:48:43.901Z,56.34
2023-05-04T20:53:45.937Z,56.46
2023-05-04T20:58:48.059Z,56.46
2023-05-04T21:03:50.442Z,56.38
2023-05-04T21:08:52.527Z,56.65
2023-05-04T21:13:54.653Z,56.36
2023-05-04T21:18:56.710Z,56.40
2023-05-04T21:23:58.803Z,56.49
2023-05-04T21:29:00.901Z,56.21
2023-05-04T21:34:03.079Z,56.46
2023-05-04T21:39:05.021Z,56.27
2023-05-04T21:44:07.047Z,56.25
2023-05-04T21:49:09.201Z,56.37
2023-05-04T21:54:11.161Z,56.67
2023-05-04T21:59:13.196Z,56.37
2023-05-04T22:04:15.203Z,56.33
2023-05-04T22:09:17.269Z,56.26
2023-05-04T22:14:19.362Z,56.27
2023-05-04T22:19:21.543Z,56.25
2023-05-04T22:24:23.544Z,56.34
2023-05-04T22:29:25.667Z,56.29
2023-05-04T22:34:27.708Z,56.57
2023-05-04T22:39:29.790Z,56.23
2023-05-04T22:44:33.868Z,56.46
2023-05-04T22:49:35.915Z,56.40
2023-05-04T22:54:37.913Z,56.57
2023-05-04T22:59:40.066Z,56.41
2023-05-04T23:04:42.626Z,56.27
2023-05-04T23:09:46.012Z,56.53
2023-05-04T23:14:52.595Z,56.43
2023-05-04T23:19:54.608Z,56.36
2023-05-04T23:24:56.565Z,56.15
2023-05-04T23:29:58.729Z,56.23
2023-05-04T23:35:00.670Z,56.49
2023-05-04T23:40:02.751Z,56.37
2023-05-04T23:45:05.314Z,56.45
2023-05-04T23:50:08.602Z,56.28
2023-05-04T23:55:11.069Z,56.40
